Time;durP1;ratioP1;P1;durP2;ratioP2;P2;SDS_P1;SDS_P2;PMS_P1;PMS_P2;Temp;Humidity;BMP_temperature;BMP_pressure;BME280_temperature;BME280_humidity;BME280_pressure;Samples;Min_cycle;Max_cycle;Signal;HPM_P1;HPM_P2
2022/04/24 00:00:36;;;;;;;11.60;7.80;;;;;;;8.53;64.40;99436.77;104419;1290;25286;-80
2022/04/24 00:03:02;;;;;;;9.80;7.20;;;;;;;8.56;64.38;99437.10;104736;1285;25515;-81
2022/04/24 00:05:29;;;;;;;9.50;7.90;;;;;;;8.60;64.50;99437.23;104976;1285;24336;-80
2022/04/24 00:07:56;;;;;;;10.30;7.10;;;;;;;8.57;64.40;99438.49;104810;1285;24314;-77
2022/04/24 00:10:23;;;;;;;11.40;7.80;;;;;;;8.54;64.42;99437.47;104493;1290;24354;-79
2022/04/24 00:12:50;;;;;;;11.90;8.10;;;;;;;8.51;64.53;99437.67;104484;1290;22569;-79
2022/04/24 00:15:16;;;;;;;12.00;8.40;;;;;;;8.54;64.57;99433.27;104621;1288;22608;-82
2022/04/24 00:17:43;;;;;;;11.20;7.30;;;;;;;8.53;64.60;99429.41;104584;1289;22565;-82
2022/04/24 00:20:10;;;;;;;12.40;7.90;;;;;;;8.49;64.71;99424.73;104062;1294;25280;-82
2022/04/24 00:22:36;;;;;;;12.10;8.90;;;;;;;8.50;64.84;99423.32;103909;1294;24310;-81
2022/04/24 00:25:03;;;;;;;12.50;8.40;;;;;;;8.49;64.68;99415.77;103960;1293;25365;-80
2022/04/24 00:27:29;;;;;;;12.00;8.90;;;;;;;8.47;64.86;99414.92;103950;1294;25255;-82
2022/04/24 00:29:56;;;;;;;9.40;7.40;;;;;;;8.47;64.94;99409.66;104701;1290;25407;-81
2022/04/24 00:32:22;;;;;;;11.80;8.50;;;;;;;8.44;64.91;99408.14;104588;1290;25296;-81
2022/04/24 00:34:48;;;;;;;10.90;7.90;;;;;;;8.44;65.09;99410.59;104571;1290;25265;-77
2022/04/24 00:37:14;;;;;;;8.80;7.50;;;;;;;8.50;65.05;99412.96;104666;1288;25674;-81
2022/04/24 00:39:41;;;;;;;8.40;7.40;;;;;;;8.45;64.99;99407.95;105296;1282;22605;-74
2022/04/24 00:42:09;;;;;;;9.50;8.20;;;;;;;8.36;65.06;99408.28;105232;1282;23193;-81
2022/04/24 00:44:35;;;;;;;9.90;8.20;;;;;;;8.34;65.30;99411.64;105274;1282;22722;-83
2022/04/24 00:47:25;;;;;;;9.30;8.20;;;;;;;8.33;65.35;99417.08;105401;1281;25408;-79
2022/04/24 00:49:52;;;;;;;7.50;6.70;;;;;;;8.30;65.49;99419.59;105178;1282;22614;-78
2022/04/24 00:52:18;;;;;;;9.90;7.10;;;;;;;8.28;65.51;99425.75;105355;1281;25342;-80
2022/04/24 00:54:45;;;;;;;9.90;8.00;;;;;;;8.26;65.59;99427.01;104802;1287;22643;-79
2022/04/24 00:57:13;;;;;;;10.30;9.20;;;;;;;8.28;65.72;99427.86;106260;1287;22578;-79
2022/04/24 00:59:40;;;;;;;13.50;8.60;;;;;;;8.34;65.68;99425.33;105800;1287;25471;-80
2022/04/24 01:02:08;;;;;;;14.10;9.00;;;;;;;8.34;65.62;99421.11;105017;1287;22770;-79
2022/04/24 01:04:35;;;;;;;11.80;9.20;;;;;;;8.31;65.70;99423.42;104997;1287;27407;-81
2022/04/24 01:07:03;;;;;;;10.80;7.90;;;;;;;8.33;65.87;99420.23;104930;1288;24261;-81
2022/04/24 01:09:33;;;;;;;11.00;8.10;;;;;;;8.37;65.59;99418.79;104768;1288;22582;-81
2022/04/24 01:12:00;;;;;;;12.70;8.60;;;;;;;8.39;65.60;99420.33;105323;1285;26548;-79
2022/04/24 01:14:28;;;;;;;9.20;8.30;;;;;;;8.42;65.66;99419.75;104946;1287;22728;-80
2022/04/24 01:16:54;;;;;;;11.30;9.30;;;;;;;8.43;65.63;99420.96;105117;1287;24054;-86
2022/04/24 01:19:21;;;;;;;11.80;10.30;;;;;;;8.44;65.67;99423.75;105197;1287;24282;-83
2022/04/24 01:21:49;;;;;;;12.50;10.50;;;;;;;8.42;65.55;99429.93;105054;1287;22572;-84
2022/04/24 01:24:17;;;;;;;13.50;10.70;;;;;;;8.35;65.35;99432.49;105173;1287;22557;-82
2022/04/24 01:26:43;;;;;;;11.40;10.10;;;;;;;8.27;65.53;99433.14;105142;1287;23123;-81
2022/04/24 01:29:11;;;;;;;14.70;12.10;;;;;;;8.19;65.50;99437.47;104798;1288;22556;-76
2022/04/24 01:31:41;;;;;;;13.80;10.20;;;;;;;8.06;65.75;99437.29;104961;1287;25547;-77
2022/04/24 01:34:07;;;;;;;12.20;10.50;;;;;;;7.94;65.91;99432.38;105429;1282;22594;-79
2022/04/24 01:36:34;;;;;;;13.60;11.40;;;;;;;7.87;66.25;99430.19;105154;1282;22570;-76
2022/04/24 01:39:00;;;;;;;15.30;11.50;;;;;;;7.83;66.40;99426.20;105417;1284;25271;-81
2022/04/24 01:41:26;;;;;;;15.50;12.30;;;;;;;7.74;66.38;99427.03;105259;1282;22560;-76
2022/04/24 01:43:53;;;;;;;14.50;11.80;;;;;;;7.67;66.81;99422.55;104938;1287;22557;-82
2022/04/24 01:46:19;;;;;;;13.30;11.90;;;;;;;7.64;66.84;99425.20;104945;1285;26672;-75
2022/04/24 01:48:45;;;;;;;13.40;11.10;;;;;;;7.61;66.95;99424.21;104930;1285;24267;-78
2022/04/24 01:51:14;;;;;;;16.70;12.40;;;;;;;7.56;67.02;99422.87;104895;1285;22703;-81
2022/04/24 01:53:42;;;;;;;14.70;12.00;;;;;;;7.47;67.14;99425.79;104981;1285;23294;-78
2022/04/24 01:56:09;;;;;;;14.60;11.50;;;;;;;7.40;67.34;99419.03;104779;1285;22671;-81
2022/04/24 01:58:36;;;;;;;15.80;12.30;;;;;;;7.41;67.46;99421.98;105482;1293;24462;-80
2022/04/24 02:01:03;;;;;;;15.10;13.20;;;;;;;7.39;67.55;99415.36;103959;1293;22623;-81
2022/04/24 02:03:33;;;;;;;15.00;12.10;;;;;;;7.45;67.62;99421.25;104383;1293;22669;-84
2022/04/24 02:06:01;;;;;;;15.20;11.70;;;;;;;7.50;67.65;99419.45;104017;1293;22564;-79
2022/04/24 02:08:27;;;;;;;15.10;12.50;;;;;;;7.53;67.77;99418.71;104209;1290;24018;-77
2022/04/24 02:10:53;;;;;;;14.20;11.20;;;;;;;7.61;67.64;99418.79;104462;1288;26539;-77
2022/04/24 02:13:19;;;;;;;17.20;13.00;;;;;;;7.68;67.55;99421.15;104563;1287;25441;-74
2022/04/24 02:15:46;;;;;;;15.30;11.50;;;;;;;7.70;67.30;99419.38;104536;1288;25356;-77
2022/04/24 02:18:12;;;;;;;16.50;12.40;;;;;;;7.58;67.13;99417.06;105144;1283;24488;-75
2022/04/24 02:20:38;;;;;;;17.20;12.60;;;;;;;7.56;67.52;99424.62;105279;1282;22572;-76
2022/04/24 02:23:05;;;;;;;18.50;13.00;;;;;;;7.62;67.59;99432.95;105535;1281;22670;-78
2022/04/24 02:25:32;;;;;;;15.70;12.10;;;;;;;7.65;67.22;99434.85;105375;1281;24469;-77
2022/04/24 02:27:58;;;;;;;15.70;12.50;;;;;;;7.69;67.29;99433.39;105402;1282;25422;-79
2022/04/24 02:30:30;;;;;;;14.90;12.80;;;;;;;7.63;66.92;99434.88;105965;1281;22588;-76
2022/04/24 02:32:58;;;;;;;15.60;12.80;;;;;;;7.49;67.14;99436.97;106600;1281;25416;-78
2022/04/24 02:35:26;;;;;;;16.80;12.80;;;;;;;7.39;67.27;99441.98;105265;1282;22550;-77
2022/04/24 02:37:52;;;;;;;13.50;10.90;;;;;;;7.33;67.40;99443.98;106822;1282;25855;-80
2022/04/24 02:40:22;;;;;;;16.00;11.80;;;;;;;7.25;67.49;99443.38;105290;1281;26536;-78
2022/04/24 02:42:50;;;;;;;13.90;11.80;;;;;;;7.21;67.83;99441.64;105478;1282;25400;-77
2022/04/24 02:45:17;;;;;;;17.50;11.70;;;;;;;7.25;67.95;99438.47;105561;1281;25441;-79
2022/04/24 02:47:43;;;;;;;15.40;11.00;;;;;;;7.29;67.73;99439.48;105312;1281;22810;-75
2022/04/24 02:50:10;;;;;;;10.10;8.30;;;;;;;7.25;67.79;99433.05;105474;1282;25319;-80
2022/04/24 02:52:51;;;;;;;15.20;10.70;;;;;;;7.22;67.85;99431.33;105391;1281;22986;-81
2022/04/24 02:55:19;;;;;;;15.60;11.50;;;;;;;7.14;67.95;99422.46;105496;1282;22550;-79
2022/04/24 02:57:46;;;;;;;13.80;10.20;;;;;;;7.13;68.19;99431.41;105345;1282;22555;-76
2022/04/24 03:00:19;;;;;;;15.90;12.00;;;;;;;7.10;68.36;99429.86;105464;1282;26742;-76
2022/04/24 03:02:47;;;;;;;13.30;10.70;;;;;;;7.09;68.39;99428.48;105334;1282;24316;-75
2022/04/24 03:05:16;;;;;;;14.40;11.50;;;;;;;7.08;68.41;99430.95;105559;1282;25401;-77
2022/04/24 03:07:43;;;;;;;14.30;10.30;;;;;;;7.08;68.53;99431.81;105449;1282;23187;-76
2022/04/24 03:10:11;;;;;;;12.10;10.10;;;;;;;7.10;68.59;99430.56;105602;1287;24499;-76
2022/04/24 03:12:38;;;;;;;12.40;9.50;;;;;;;7.08;68.66;99430.06;104861;1287;25288;-78
2022/04/24 03:15:08;;;;;;;13.30;11.30;;;;;;;7.08;68.66;99429.36;104939;1287;23616;-76
2022/04/24 03:17:35;;;;;;;15.30;10.60;;;;;;;7.11;68.84;99427.06;105028;1287;23042;-80
2022/04/24 03:20:04;;;;;;;14.90;12.00;;;;;;;7.07;68.64;99426.05;105356;1287;24432;-80
2022/04/24 03:22:33;;;;;;;16.70;11.60;;;;;;;7.08;68.72;99426.39;104931;1287;22593;-82
2022/04/24 03:25:00;;;;;;;14.20;10.40;;;;;;;7.04;68.76;99425.89;105023;1288;22588;-78
2022/04/24 03:27:27;;;;;;;12.40;9.50;;;;;;;7.04;68.92;99420.30;104809;1287;22568;-80
2022/04/24 03:29:53;;;;;;;15.50;11.60;;;;;;;7.03;68.93;99422.58;105457;1281;22596;-80
2022/04/24 03:32:19;;;;;;;13.70;11.30;;;;;;;7.06;69.06;99423.25;105123;1287;24498;-83
2022/04/24 03:34:50;;;;;;;13.60;10.70;;;;;;;7.04;69.19;99423.80;105326;1287;25416;-83
2022/04/24 03:37:18;;;;;;;12.90;10.10;;;;;;;7.06;69.28;99425.70;104723;1290;25923;-79
2022/04/24 03:39:44;;;;;;;12.80;10.50;;;;;;;7.03;69.37;99424.51;104632;1291;22629;-79
2022/04/24 03:42:10;;;;;;;13.60;11.00;;;;;;;7.05;69.26;99429.04;105122;1291;25286;-80
2022/04/24 03:44:37;;;;;;;15.40;10.90;;;;;;;7.02;69.58;99430.12;104483;1293;22548;-82
2022/04/24 03:47:05;;;;;;;15.10;9.90;;;;;;;7.11;69.70;99427.42;104989;1294;25993;-82
2022/04/24 03:49:32;;;;;;;16.60;10.40;;;;;;;7.16;69.59;99430.50;105483;1293;22589;-81
2022/04/24 03:51:58;;;;;;;14.30;10.90;;;;;;;7.24;69.53;99431.65;105316;1294;22658;-81
2022/04/24 03:54:25;;;;;;;14.90;11.50;;;;;;;7.32;69.69;99433.32;104741;1294;25299;-80
2022/04/24 03:56:51;;;;;;;16.20;10.40;;;;;;;7.43;69.51;99435.29;105442;1284;22560;-80
2022/04/24 03:59:17;;;;;;;14.40;11.00;;;;;;;7.44;69.26;99426.52;106135;1282;26543;-77
2022/04/24 04:01:44;;;;;;;12.40;9.60;;;;;;;7.50;69.36;99427.14;105845;1284;25324;-80
2022/04/24 04:04:11;;;;;;;12.90;9.60;;;;;;;7.53;69.08;99428.86;106192;1281;24318;-75
2022/04/24 04:06:37;;;;;;;11.60;9.80;;;;;;;7.52;69.19;99432.04;106279;1282;23956;-80
2022/04/24 04:09:03;;;;;;;15.20;10.50;;;;;;;7.50;68.99;99432.58;105644;1288;22516;-75
2022/04/24 04:11:30;;;;;;;11.40;9.70;;;;;;;7.46;69.15;99432.27;105985;1287;22717;-79
2022/04/24 04:13:56;;;;;;;14.00;10.30;;;;;;;7.43;69.19;99435.98;105544;1287;26579;-81
2022/04/24 04:16:23;;;;;;;10.80;9.00;;;;;;;7.45;69.26;99434.40;105777;1285;23529;-77
2022/04/24 04:18:49;;;;;;;13.50;10.40;;;;;;;7.46;69.22;99431.40;106088;1285;23218;-79
2022/04/24 04:21:16;;;;;;;12.20;8.90;;;;;;;7.43;69.37;99428.80;105242;1285;22623;-78
2022/04/24 04:23:42;;;;;;;11.10;9.10;;;;;;;7.43;69.29;99436.86;105499;1290;22580;-81
2022/04/24 04:26:08;;;;;;;12.40;9.70;;;;;;;7.41;69.25;99444.08;104319;1294;25346;-85
2022/04/24 04:28:34;;;;;;;15.10;9.40;;;;;;;7.44;69.46;99442.11;104219;1297;23914;-82
2022/04/24 04:31:00;;;;;;;13.70;10.70;;;;;;;7.46;69.35;99443.49;104367;1293;25334;-80
2022/04/24 04:33:27;;;;;;;11.10;8.80;;;;;;;7.47;69.27;99441.38;104344;1294;22567;-82
2022/04/24 04:35:53;;;;;;;16.10;10.00;;;;;;;7.50;69.20;99443.27;104047;1294;26923;-77
2022/04/24 04:38:19;;;;;;;12.80;9.50;;;;;;;7.52;69.25;99444.48;104257;1293;24234;-83
2022/04/24 04:40:46;;;;;;;15.70;9.60;;;;;;;7.45;69.21;99442.61;104070;1294;24323;-79
2022/04/24 04:43:12;;;;;;;15.10;11.70;;;;;;;7.39;69.36;99435.86;104809;1291;26653;-78
2022/04/24 04:45:38;;;;;;;14.70;10.30;;;;;;;7.39;69.43;99436.73;104592;1291;22965;-78
2022/04/24 04:48:05;;;;;;;15.50;10.30;;;;;;;7.38;69.55;99436.40;106451;1287;22599;-87
2022/04/24 04:50:32;;;;;;;15.40;9.40;;;;;;;7.38;69.40;99441.30;107166;1284;22667;-92
2022/04/24 04:52:59;;;;;;;14.50;9.70;;;;;;;7.33;69.33;99439.60;107848;1282;22586;-91
2022/04/24 04:55:25;;;;;;;13.00;9.40;;;;;;;7.27;69.51;99436.52;107427;1282;23892;-91
2022/04/24 04:57:51;;;;;;;13.80;9.30;;;;;;;7.21;69.61;99426.25;107752;1282;22627;-80
2022/04/24 05:00:18;;;;;;;16.10;10.50;;;;;;;7.28;69.79;99430.20;107960;1284;22555;-91
2022/04/24 05:02:44;;;;;;;12.70;9.60;;;;;;;7.31;69.87;99432.45;107293;1283;22506;-91
2022/04/24 05:05:11;;;;;;;13.70;9.80;;;;;;;7.33;69.89;99434.89;107203;1284;22615;-92
2022/04/24 05:07:38;;;;;;;12.00;8.90;;;;;;;7.38;69.92;99437.27;107178;1284;245948;-91
2022/04/24 05:10:05;;;;;;;13.30;8.40;;;;;;;7.37;69.76;99441.49;107276;1284;22551;-91
2022/04/24 05:12:32;;;;;;;13.90;9.60;;;;;;;7.34;69.80;99440.81;107075;1287;22505;-92
2022/04/24 05:15:05;;;;;;;11.70;8.20;;;;;;;7.36;69.97;99437.13;107019;1284;22507;-92
2022/04/24 05:17:32;;;;;;;12.10;8.20;;;;;;;7.38;69.93;99429.02;106915;1284;22750;-91
2022/04/24 05:19:59;;;;;;;11.50;9.00;;;;;;;7.38;70.05;99434.30;107052;1282;22614;-91
2022/04/24 05:22:25;;;;;;;12.90;9.20;;;;;;;7.47;70.45;99440.14;107191;1284;22587;-93
2022/04/24 05:24:51;;;;;;;13.40;8.90;;;;;;;7.62;70.21;99436.80;106887;1284;22674;-92
2022/04/24 05:27:19;;;;;;;12.80;9.10;;;;;;;7.61;69.94;99433.50;106715;1284;22570;-91
2022/04/24 05:29:46;;;;;;;11.10;9.00;;;;;;;7.66;69.96;99429.75;106951;1284;22558;-91
2022/04/24 05:32:12;;;;;;;11.60;8.70;;;;;;;7.63;69.76;99427.00;106781;1284;22569;-91
2022/04/24 05:34:39;;;;;;;13.10;8.20;;;;;;;7.58;69.95;99425.84;106797;1282;22708;-91
2022/04/24 05:37:06;;;;;;;13.60;8.60;;;;;;;7.59;70.11;99428.27;106491;1287;25294;-90
2022/04/24 05:39:34;;;;;;;13.60;8.00;;;;;;;7.62;70.08;99441.19;106430;1282;22739;-93
2022/04/24 05:42:00;;;;;;;13.80;9.30;;;;;;;7.68;70.25;99442.34;106637;1282;22560;-92
2022/04/24 05:44:26;;;;;;;12.50;8.50;;;;;;;7.82;70.31;99446.91;106438;1284;22558;-91
2022/04/24 05:46:52;;;;;;;11.10;8.70;;;;;;;7.93;70.03;99448.69;106662;1284;22983;-90
2022/04/24 05:49:19;;;;;;;14.30;9.10;;;;;;;8.01;69.88;99446.31;106734;1284;22576;-91
2022/04/24 05:51:45;;;;;;;11.60;8.60;;;;;;;8.02;69.57;99447.17;106579;1284;22804;-92
2022/04/24 05:54:12;;;;;;;12.30;9.00;;;;;;;8.05;69.64;99451.34;106501;1284;22626;-91
2022/04/24 05:56:38;;;;;;;10.30;8.30;;;;;;;8.14;69.66;99456.98;106298;1284;22642;-91
2022/04/24 05:59:05;;;;;;;11.90;8.60;;;;;;;8.19;69.57;99461.66;106426;1284;22857;-93
2022/04/24 06:01:31;;;;;;;10.40;7.00;;;;;;;8.25;69.41;99467.20;106602;1284;25274;-93
2022/04/24 06:03:58;;;;;;;9.20;7.40;;;;;;;8.29;69.34;99463.27;106751;1284;25553;-91
2022/04/24 06:06:25;;;;;;;8.60;7.30;;;;;;;8.31;69.17;99462.36;106314;1287;22624;-91
2022/04/24 06:08:51;;;;;;;10.50;7.00;;;;;;;8.34;69.26;99456.55;106440;1287;22862;-93
2022/04/24 06:11:18;;;;;;;8.60;6.70;;;;;;;8.41;69.28;99458.02;105248;1287;22638;-80
2022/04/24 06:13:45;;;;;;;10.60;7.30;;;;;;;8.54;69.08;99461.17;105327;1288;22623;-89
2022/04/24 06:16:11;;;;;;;8.00;6.80;;;;;;;8.64;68.94;99462.96;106386;1287;22594;-91
2022/04/24 06:18:38;;;;;;;11.90;7.80;;;;;;;8.76;68.89;99466.98;107248;1287;22571;-92
2022/04/24 06:21:05;;;;;;;10.80;8.50;;;;;;;8.84;68.54;99465.08;106641;1285;25433;-92
2022/04/24 06:23:33;;;;;;;9.20;7.90;;;;;;;8.98;68.54;99463.26;106421;1290;22531;-89
2022/04/24 06:25:59;;;;;;;9.10;7.40;;;;;;;9.10;68.24;99457.97;105336;1290;22552;-84
2022/04/24 06:28:26;;;;;;;9.50;7.00;;;;;;;9.26;68.03;99464.35;105225;1290;22588;-92
2022/04/24 06:30:52;;;;;;;9.10;7.70;;;;;;;9.44;68.16;99468.94;105095;1290;24354;-89
2022/04/24 06:33:18;;;;;;;12.00;8.80;;;;;;;9.61;67.99;99464.23;104776;1290;22550;-89
2022/04/24 06:35:45;;;;;;;10.90;8.90;;;;;;;9.72;67.37;99457.14;104369;1297;22664;-88
2022/04/24 06:38:17;;;;;;;10.50;9.00;;;;;;;9.84;67.16;99457.26;104831;1297;22570;-89
2022/04/24 06:40:43;;;;;;;10.40;7.90;;;;;;;9.96;66.96;99463.33;104753;1297;25385;-88
2022/04/24 06:43:09;;;;;;;11.70;8.80;;;;;;;9.97;66.61;99467.70;105385;1293;25348;-90
2022/04/24 06:45:43;;;;;;;12.10;8.10;;;;;;;9.91;66.29;99472.56;106316;1290;22772;-89
2022/04/24 06:48:11;;;;;;;12.60;9.70;;;;;;;9.90;66.13;99475.77;107052;1290;22884;-88
2022/04/24 06:50:42;;;;;;;10.60;9.10;;;;;;;9.88;66.27;99472.27;106111;1290;22567;-89
2022/04/24 06:53:11;;;;;;;9.70;7.80;;;;;;;9.95;66.30;99472.85;105319;1286;25522;-86
2022/04/24 06:55:42;;;;;;;8.80;7.90;;;;;;;9.94;65.85;99469.17;105409;1284;25934;-87
2022/04/24 06:58:10;;;;;;;12.00;10.10;;;;;;;9.90;66.03;99469.61;105824;1283;24454;-86
2022/04/24 07:00:40;;;;;;;10.20;8.90;;;;;;;9.96;65.96;99470.20;105478;1287;23130;-86
2022/04/24 07:03:29;;;;;;;11.00;9.10;;;;;;;9.93;65.92;99474.13;105636;1287;23086;-87
2022/04/24 07:06:00;;;;;;;10.80;8.70;;;;;;;10.00;65.85;99477.48;105316;1287;24280;-88
2022/04/24 07:08:29;;;;;;;8.60;7.20;;;;;;;9.99;65.68;99484.02;105172;1287;25459;-89
2022/04/24 07:10:55;;;;;;;9.10;8.10;;;;;;;10.00;65.68;99487.70;105274;1287;23962;-87
2022/04/24 07:13:22;;;;;;;10.60;8.60;;;;;;;10.06;65.57;99487.20;105158;1287;22594;-87
2022/04/24 07:15:48;;;;;;;12.30;9.60;;;;;;;10.07;65.41;99485.98;105237;1287;22552;-86
2022/04/24 07:18:15;;;;;;;11.80;9.60;;;;;;;10.07;65.40;99484.02;105337;1285;22590;-92
2022/04/24 07:20:41;;;;;;;8.60;7.70;;;;;;;10.12;65.60;99483.91;105512;1282;25394;-87
2022/04/24 07:23:07;;;;;;;11.10;8.30;;;;;;;10.11;65.06;99489.59;105681;1284;22549;-89
2022/04/24 07:25:40;;;;;;;9.00;8.10;;;;;;;9.95;64.98;99486.91;106886;1281;22382;-88
2022/04/24 07:28:12;;;;;;;10.20;8.40;;;;;;;9.89;65.20;99481.60;106337;1281;22530;-88
2022/04/24 07:30:38;;;;;;;10.40;8.70;;;;;;;9.94;65.56;99477.08;105993;1282;25375;-88
2022/04/24 07:33:05;;;;;;;9.90;7.60;;;;;;;10.03;65.68;99484.46;107154;1281;22606;-80
2022/04/24 07:35:34;;;;;;;9.20;8.30;;;;;;;10.12;65.42;99483.05;107662;1281;22560;-89
2022/04/24 07:38:01;;;;;;;8.80;7.90;;;;;;;10.14;65.04;99485.30;107795;1281;24245;-88
2022/04/24 07:40:30;;;;;;;9.40;8.00;;;;;;;10.13;64.83;99487.23;105601;1282;22631;-85
2022/04/24 07:42:58;;;;;;;9.90;7.70;;;;;;;10.16;64.85;99488.06;105280;1285;22636;-88
2022/04/24 07:45:40;;;;;;;10.60;7.80;;;;;;;10.20;64.91;99484.96;105436;1284;26650;-84
2022/04/24 07:48:08;;;;;;;7.30;6.50;;;;;;;10.31;64.91;99479.45;106464;1280;24864;-86
2022/04/24 07:50:38;;;;;;;10.20;6.80;;;;;;;10.36;64.57;99476.00;105451;1284;24220;-86
2022/04/24 07:53:05;;;;;;;8.00;6.90;;;;;;;10.37;64.26;99474.74;105712;1282;24098;-85
2022/04/24 07:55:32;;;;;;;9.30;7.60;;;;;;;10.42;64.03;99476.91;105523;1282;22772;-90
2022/04/24 07:57:59;;;;;;;9.20;7.50;;;;;;;10.31;63.74;99476.83;106045;1282;25937;-87
2022/04/24 08:00:32;;;;;;;9.50;8.40;;;;;;;10.24;64.21;99481.72;107479;1281;22787;-86
2022/04/24 08:03:06;;;;;;;10.40;8.70;;;;;;;10.40;64.27;99481.89;107285;1281;24117;-86
2022/04/24 08:05:38;;;;;;;9.00;8.00;;;;;;;10.61;64.26;99480.20;108317;1281;22607;-86
2022/04/24 08:08:10;;;;;;;11.80;8.80;;;;;;;10.82;64.22;99490.80;108170;1284;22565;-86
2022/04/24 08:10:40;;;;;;;9.70;8.20;;;;;;;11.06;63.97;99487.20;108293;1281;22738;-85
2022/04/24 08:13:08;;;;;;;9.50;7.50;;;;;;;11.24;63.12;99480.41;108855;1281;22569;-86
2022/04/24 08:15:43;;;;;;;9.50;8.50;;;;;;;11.34;62.52;99487.73;107944;1287;22962;-84
2022/04/24 08:18:13;;;;;;;7.90;6.80;;;;;;;11.42;62.78;99485.91;107349;1293;22578;-81
2022/04/24 08:20:42;;;;;;;7.80;6.50;;;;;;;11.48;62.16;99486.82;106163;1294;22856;-83
2022/04/24 08:23:10;;;;;;;7.30;6.60;;;;;;;11.54;62.06;99485.95;106123;1294;22736;-90
2022/04/24 08:25:37;;;;;;;9.20;6.30;;;;;;;11.63;62.02;99482.00;105396;1293;23549;-90
2022/04/24 08:28:06;;;;;;;6.90;6.20;;;;;;;11.77;61.74;99479.14;105185;1296;26660;-92
2022/04/24 08:30:34;;;;;;;6.70;6.00;;;;;;;12.00;61.74;99473.19;104988;1297;22689;-90
2022/04/24 08:33:01;;;;;;;7.70;6.70;;;;;;;12.19;61.35;99473.88;104501;1296;22558;-83
2022/04/24 08:35:27;;;;;;;7.10;6.40;;;;;;;12.32;60.99;99470.68;104946;1290;22541;-81
2022/04/24 08:37:54;;;;;;;9.30;6.20;;;;;;;12.40;60.28;99471.67;105783;1291;23895;-81
2022/04/24 08:40:24;;;;;;;8.60;6.60;;;;;;;12.49;59.74;99468.53;105516;1290;23866;-80
2022/04/24 08:42:52;;;;;;;6.70;5.90;;;;;;;12.63;59.39;99461.05;106545;1287;23495;-80
2022/04/24 08:45:27;;;;;;;10.00;6.70;;;;;;;12.83;59.33;99461.25;106720;1284;22813;-80
2022/04/24 08:47:55;;;;;;;8.50;7.10;;;;;;;13.07;59.29;99462.05;106415;1281;22648;-82
2022/04/24 08:50:22;;;;;;;7.50;6.50;;;;;;;13.19;58.88;99456.02;106108;1284;24264;-81
2022/04/24 08:52:49;;;;;;;7.50;6.70;;;;;;;13.30;58.33;99457.74;105837;1281;22569;-79
2022/04/24 08:55:16;;;;;;;6.60;6.00;;;;;;;13.38;57.46;99454.80;105468;1282;22663;-79
2022/04/24 08:57:42;;;;;;;6.40;5.70;;;;;;;13.43;57.37;99450.74;105987;1281;24299;-77
2022/04/24 09:00:10;;;;;;;7.00;6.00;;;;;;;13.50;57.33;99450.52;107450;1281;22618;-80
2022/04/24 09:02:53;;;;;;;8.30;5.40;;;;;;;13.63;57.19;99448.48;106935;1281;23150;-78
2022/04/24 09:05:21;;;;;;;5.40;4.90;;;;;;;13.83;56.91;99445.95;107452;1281;22869;-81
2022/04/24 09:07:48;;;;;;;7.20;4.00;;;;;;;14.01;56.45;99442.10;107600;1281;24245;-83
2022/04/24 09:10:56;;;;;;;4.90;4.40;;;;;;;14.31;56.04;99438.11;108546;1282;22616;-82
2022/04/24 09:16:19;;;;;;;;;;;;;;;14.73;54.94;99433.61;108681;1281;22960;-83
2022/04/24 09:18:46;;;;;;;5.00;4.50;;;;;;;14.91;54.55;99434.13;107999;1282;22796;-83
2022/04/24 09:21:14;;;;;;;4.80;4.10;;;;;;;15.11;53.91;99436.09;108177;1282;22531;-85
2022/04/24 09:23:44;;;;;;;5.60;4.20;;;;;;;15.27;53.42;99439.14;108292;1282;22696;-85
2022/04/24 09:26:16;;;;;;;3.70;3.40;;;;;;;15.45;53.02;99442.08;108053;1282;22600;-86
2022/04/24 09:28:44;;;;;;;3.70;3.30;;;;;;;15.50;52.40;99439.16;108374;1282;22561;-89
2022/04/24 09:31:10;;;;;;;3.50;3.20;;;;;;;15.59;51.88;99438.44;107842;1281;24265;-90
2022/04/24 09:33:38;;;;;;;2.80;2.60;;;;;;;15.79;51.72;99439.85;107092;1284;22848;-87
2022/04/24 09:36:06;;;;;;;3.50;3.20;;;;;;;15.83;50.88;99442.31;106673;1284;22745;-88
2022/04/24 09:38:40;;;;;;;3.30;3.00;;;;;;;15.66;50.39;99436.86;106553;1281;24278;-88
2022/04/24 09:41:18;;;;;;;3.80;2.70;;;;;;;15.51;50.24;99434.70;106783;1281;23086;-88
2022/04/24 09:43:45;;;;;;;3.20;2.60;;;;;;;15.41;50.15;99435.18;106743;1281;24292;-82
2022/04/24 09:46:13;;;;;;;6.80;2.90;;;;;;;15.35;50.32;99434.89;106635;1282;24291;-88
2022/04/24 09:48:39;;;;;;;2.90;2.70;;;;;;;15.28;50.36;99436.77;106227;1282;22494;-86
2022/04/24 09:51:10;;;;;;;2.90;2.70;;;;;;;15.24;50.78;99435.70;106357;1281;23873;-88
2022/04/24 09:53:43;;;;;;;2.50;2.30;;;;;;;15.34;50.69;99443.27;106324;1282;24471;-90
2022/04/24 09:56:10;;;;;;;3.40;2.90;;;;;;;15.44;50.30;99443.89;106851;1282;25284;-87
2022/04/24 09:58:37;;;;;;;2.70;2.50;;;;;;;15.45;49.76;99442.93;106771;1281;24189;-87
2022/04/24 10:01:06;;;;;;;3.00;2.10;;;;;;;15.53;50.03;99447.92;107126;1281;22654;-88
2022/04/24 10:03:37;;;;;;;3.60;3.30;;;;;;;15.67;49.66;99446.40;106540;1281;22885;-88
2022/04/24 10:06:07;;;;;;;3.10;2.90;;;;;;;15.80;49.26;99454.20;106405;1281;25963;-88
2022/04/24 10:08:35;;;;;;;2.60;2.40;;;;;;;15.84;49.40;99458.41;107017;1282;22664;-86
2022/04/24 10:11:04;;;;;;;3.20;2.40;;;;;;;15.89;49.45;99462.49;106780;1282;25343;-82
2022/04/24 10:13:36;;;;;;;3.10;2.80;;;;;;;15.87;49.01;99460.77;106011;1281;22553;-88
2022/04/24 10:16:45;;;;;;;2.60;2.40;;;;;;;15.85;48.92;99463.02;106000;1285;25419;-88
2022/04/24 10:19:39;;;;;;;2.40;2.20;;;;;;;15.80;48.70;99465.88;105093;1291;24288;-80
2022/04/24 10:22:17;;;;;;;2.40;2.20;;;;;;;15.77;48.72;99461.95;105121;1293;23017;-90
2022/04/24 10:24:48;;;;;;;2.60;2.40;;;;;;;15.74;48.65;99461.73;105235;1291;23933;-86
2022/04/24 10:27:17;;;;;;;2.90;2.60;;;;;;;15.73;48.52;99464.79;104939;1291;22986;-86
2022/04/24 10:29:52;;;;;;;2.60;2.40;;;;;;;15.79;48.65;99464.89;105345;1291;22569;-87
2022/04/24 10:32:26;;;;;;;2.50;2.30;;;;;;;15.93;48.52;99462.31;104622;1290;24260;-86
2022/04/24 10:34:54;;;;;;;3.30;2.40;;;;;;;16.03;48.45;99459.19;104807;1290;22713;-85
2022/04/24 10:37:31;;;;;;;2.70;2.30;;;;;;;16.19;48.48;99458.13;106428;1287;22683;-84
2022/04/24 10:40:00;;;;;;;3.80;2.40;;;;;;;16.46;48.00;99454.86;104998;1287;22987;-88
2022/04/24 10:42:35;;;;;;;2.50;2.30;;;;;;;16.85;47.43;99444.44;105628;1282;22604;-86
2022/04/24 10:45:09;;;;;;;2.60;2.40;;;;;;;17.13;46.75;99440.73;105826;1281;22571;-85
2022/04/24 10:47:50;;;;;;;2.80;2.30;;;;;;;17.24;45.92;99442.33;106054;1281;22708;-87
2022/04/24 10:50:20;;;;;;;2.50;2.10;;;;;;;17.31;45.52;99439.48;106745;1281;23982;-86
2022/04/24 10:52:49;;;;;;;3.60;2.50;;;;;;;17.38;44.96;99435.55;105867;1281;22551;-86
2022/04/24 10:55:22;;;;;;;2.80;2.50;;;;;;;17.25;44.76;99431.05;105643;1281;24108;-87
2022/04/24 10:57:57;;;;;;;2.50;2.20;;;;;;;17.20;44.87;99427.21;105746;1281;22492;-88
2022/04/24 11:00:32;;;;;;;2.70;2.50;;;;;;;17.19;44.79;99431.18;105893;1281;23992;-85
2022/04/24 11:03:16;;;;;;;2.90;2.70;;;;;;;17.36;44.47;99433.86;106002;1282;22588;-88
2022/04/24 11:05:45;;;;;;;2.70;2.50;;;;;;;17.58;44.09;99425.79;105638;1282;25345;-88
2022/04/24 11:08:18;;;;;;;2.80;2.60;;;;;;;17.59;43.80;99430.35;105637;1281;24285;-85
2022/04/24 11:10:47;;;;;;;4.20;2.50;;;;;;;17.48;43.65;99433.24;105494;1282;25558;-87
2022/04/24 11:13:19;;;;;;;3.20;2.90;;;;;;;17.42;43.68;99432.83;105597;1281;24276;-85
2022/04/24 11:15:47;;;;;;;2.70;2.50;;;;;;;17.38;43.44;99431.65;105412;1282;22916;-85
2022/04/24 11:18:26;;;;;;;2.50;2.30;;;;;;;17.34;43.80;99434.00;105381;1281;24252;-85
2022/04/24 11:21:03;;;;;;;3.20;2.80;;;;;;;17.35;43.80;99430.35;105532;1281;22566;-84
2022/04/24 11:23:38;;;;;;;2.10;1.90;;;;;;;17.35;43.53;99425.57;106001;1281;24410;-83
2022/04/24 11:26:12;;;;;;;4.10;2.60;;;;;;;17.31;43.68;99424.31;106264;1282;23949;-83
2022/04/24 11:28:48;;;;;;;2.90;2.30;;;;;;;17.31;43.38;99424.36;106373;1282;25567;-84
2022/04/24 11:31:19;;;;;;;2.80;2.50;;;;;;;17.19;43.22;99425.52;106449;1282;25432;-85
2022/04/24 11:34:01;;;;;;;3.10;2.60;;;;;;;17.09;43.83;99426.91;106551;1282;22616;-88